Aérodrome :
LOGIN :

S'inscrire | Disclaimer

   EN    FR    IT 

 










Légende :    VFR   VFR Marginal   IFR   IFR Intensif   IFR Très Intensif
Visi : 
Plafond : 
>= 8 km
>= 3000ft
5 à 8 km
1000 à 3000 ft
1500m à 5 km
500 à 1000 ft
800 à 1500m
200 à 500 ft
< 800m
< 200 ft
Symboles :   Orages  Brouillard  Fortes neiges  Fortes précipitations  Vent > 20 kt
SIGMETs :   Divers  Orages  Givrage  Turbulence  Onde Orograph.  Cendres Volcan.






- Altitude de l'aérodrome : 147 ft
- Code IATA : DUS


EDDL - Düsseldorf Int.

DERNIER METAR :
  • 211550Z 22014KT 9999 SCT032 BKN048 09/04 Q1025 NOSIG

METARs EXPIRÉS :
  • 211520Z 23015KT 9999 FEW030 SCT040 09/04 Q1025 NOSIG
  • 211450Z 22015KT 9999 FEW030 09/03 Q1025 NOSIG
  • 211420Z 23013KT 9999 FEW032 09/03 Q1026 NOSIG
  • 211350Z 22014KT 9999 FEW028 08/03 Q1026 NOSIG
  • 211320Z 23016KT 9999 SCT028 08/03 Q1026 NOSIG
  • 211250Z 23016KT 9999 FEW026 08/03 Q1026 NOSIG

TAF TAF EDDL
Valide du 21 à 12h jusqu'au 22 à 18h UTC


211100Z 2112/2218 23015G25KT 9999 SCT035
BECMG 2115/2118 21012KT
BECMG 2202/2205 22015G25KT
TEMPO 2207/2213 24020G35KT



MET'MAP, la Météo Aéronautique d'un coup d'oeil ! - Copyright ORBIFLY Décembre 2007 - Disclaimer

ORBIFLY MET'MAP TEAM :

Programmation & Développement : Alexandra Zaïnal
Sur une idée originale de : Baudouin d'Aumeries
Assistance à la programmation : Marc-Olivier Méhu
Soutien technique & logistique : Manuel Goepfert

Contact : metmap@orbifly.com




SOURCES & CREDITS :

   NOAA